Terminal Aerodrome Forecast
Issued by NWS Austin/San Antonio, TX

Home | Current Version | Previous Version | Text Only | Print | Product List | Glossary On
Versions: 1 2 3 4 5 6 7 8 9 10 11 12 13 14 15 16 17 18 19 20 21 22 23 24 25 26 27 28 29
000
FTUS44 KEWX 242332
TAFAUS
TAF
KAUS 242332Z 2500/2606 15012G22KT P6SM SCT035 BKN060
     FM250300 16011KT P6SM BKN022
     FM250800 17008KT 6SM BR OVC008
     FM251300 18012KT P6SM SCT010 OVC020
     FM251800 16012G22KT P6SM SCT020 BKN035
     FM252200 15013G23KT P6SM BKN060=

USA.gov is the U.S. government's official web portal to all federal, state and local government web resources and services.